Bethel, Texas
Current Conditions -  °F | °C
As of 10:55 AM on Saturday 25 Oct 2014 (Local Time) from KCOM Reporting Station
Clear Clear  
Wind Chill: 78°   Ceiling: Unl
Heat Index: 79°   Visibility: 10mi
Dew Point: 62°   Wind: 15mph
Humidity: 58%   Direction: 250°WSW
Pressure: 30.2"   Gusts: 18mph
Location:  31.7639°N, 99.8991°W
Report Text: KCOM 251555Z AUTO 25013G16KT 10SM CLR 25/17 A3020 RMK AO2 T02530165
Loading
Personal Weather Stations






























Interactive Weather Map
Tropical Storm Tracking
New forecast layout! Learn more

10-Day Weather Forecast

Advertisements
Track Severe Weather on mobile